Canning, Argentina
Current Conditions -  °F | °C
As of 4:00 PM on Sunday 21 Dec 2014 (Local Time) from SAEZ Reporting Station
Broken Clouds Broken Clouds  
Wind Chill: 21°   Ceiling: 4300
Heat Index: 21°   Visibility: 6mi
Dew Point:   Wind: 12mph
Humidity: 40%   Direction: 210°SSW
Pressure: 29.77"   Gusts: NA
Location:  34.87°S, 58.52°W
Report Text: SAEZ 211900Z 21010KT 160V250 9999 BKN043 21/07 Q1008
Loading
Personal Weather Stations






























Interactive Weather Map New forecast layout! Learn more

10-Day Weather Forecast

Advertisements
Track Severe Weather on mobile